sensor_id;sensor_type;location;lat;lon;timestamp;P1;durP1;ratioP1;P2;durP2;ratioP2
46701;SDS011;33449;50.712;7.124;2023-02-26T00:02:48;9.23;;;3.80;;
46701;SDS011;33449;50.712;7.124;2023-02-26T00:05:16;9.10;;;3.38;;
46701;SDS011;33449;50.712;7.124;2023-02-26T00:07:43;12.45;;;5.20;;
46701;SDS011;33449;50.712;7.124;2023-02-26T00:10:11;7.30;;;2.60;;
46701;SDS011;33449;50.712;7.124;2023-02-26T00:12:38;12.02;;;3.92;;
46701;SDS011;33449;50.712;7.124;2023-02-26T00:17:54;13.48;;;3.63;;
46701;SDS011;33449;50.712;7.124;2023-02-26T00:20:24;12.57;;;3.60;;
46701;SDS011;33449;50.712;7.124;2023-02-26T00:22:52;9.38;;;3.28;;
46701;SDS011;33449;50.712;7.124;2023-02-26T00:25:19;17.15;;;4.32;;
46701;SDS011;33449;50.712;7.124;2023-02-26T00:27:46;10.90;;;3.78;;
46701;SDS011;33449;50.712;7.124;2023-02-26T00:32:43;11.60;;;3.22;;
46701;SDS011;33449;50.712;7.124;2023-02-26T00:35:11;9.95;;;3.58;;
46701;SDS011;33449;50.712;7.124;2023-02-26T00:40:28;10.23;;;3.58;;
46701;SDS011;33449;50.712;7.124;2023-02-26T00:42:56;14.10;;;3.45;;
46701;SDS011;33449;50.712;7.124;2023-02-26T01:01:18;17.05;;;3.80;;
46701;SDS011;33449;50.712;7.124;2023-02-26T01:03:45;8.43;;;3.97;;
46701;SDS011;33449;50.712;7.124;2023-02-26T01:06:13;8.93;;;2.75;;
46701;SDS011;33449;50.712;7.124;2023-02-26T01:08:47;11.57;;;3.53;;
46701;SDS011;33449;50.712;7.124;2023-02-26T01:11:42;16.27;;;2.80;;
46701;SDS011;33449;50.712;7.124;2023-02-26T01:14:09;6.85;;;2.90;;
46701;SDS011;33449;50.712;7.124;2023-02-26T01:22:06;9.30;;;2.90;;
46701;SDS011;33449;50.712;7.124;2023-02-26T01:24:34;6.18;;;2.28;;
46701;SDS011;33449;50.712;7.124;2023-02-26T01:32:02;9.35;;;3.95;;
46701;SDS011;33449;50.712;7.124;2023-02-26T01:34:51;12.52;;;2.95;;
46701;SDS011;33449;50.712;7.124;2023-02-26T01:42:41;6.68;;;3.40;;
46701;SDS011;33449;50.712;7.124;2023-02-26T01:50:24;7.25;;;3.20;;
46701;SDS011;33449;50.712;7.124;2023-02-26T01:55:34;15.57;;;3.45;;
46701;SDS011;33449;50.712;7.124;2023-02-26T01:58:01;8.20;;;3.13;;
46701;SDS011;33449;50.712;7.124;2023-02-26T02:00:29;9.18;;;3.38;;
46701;SDS011;33449;50.712;7.124;2023-02-26T02:02:56;19.67;;;5.75;;
46701;SDS011;33449;50.712;7.124;2023-02-26T02:05:44;7.53;;;3.42;;
46701;SDS011;33449;50.712;7.124;2023-02-26T02:08:13;8.27;;;2.88;;
46701;SDS011;33449;50.712;7.124;2023-02-26T02:10:41;7.18;;;3.00;;
46701;SDS011;33449;50.712;7.124;2023-02-26T02:23:42;10.70;;;3.53;;
46701;SDS011;33449;50.712;7.124;2023-02-26T02:26:18;12.38;;;2.95;;
46701;SDS011;33449;50.712;7.124;2023-02-26T02:36:40;7.68;;;2.90;;
46701;SDS011;33449;50.712;7.124;2023-02-26T02:39:10;13.77;;;4.88;;
46701;SDS011;33449;50.712;7.124;2023-02-26T02:44:14;9.15;;;3.95;;
46701;SDS011;33449;50.712;7.124;2023-02-26T02:46:44;9.43;;;3.45;;
46701;SDS011;33449;50.712;7.124;2023-02-26T02:49:14;19.20;;;4.55;;
46701;SDS011;33449;50.712;7.124;2023-02-26T02:51:43;12.73;;;4.00;;
46701;SDS011;33449;50.712;7.124;2023-02-26T02:54:12;12.32;;;4.70;;
46701;SDS011;33449;50.712;7.124;2023-02-26T03:01:42;9.02;;;3.67;;
46701;SDS011;33449;50.712;7.124;2023-02-26T03:04:10;8.98;;;2.88;;
46701;SDS011;33449;50.712;7.124;2023-02-26T03:06:38;9.68;;;3.33;;
46701;SDS011;33449;50.712;7.124;2023-02-26T03:09:06;11.35;;;3.28;;
46701;SDS011;33449;50.712;7.124;2023-02-26T03:14:08;9.23;;;3.78;;
46701;SDS011;33449;50.712;7.124;2023-02-26T03:16:54;8.50;;;4.70;;
46701;SDS011;33449;50.712;7.124;2023-02-26T03:19:29;10.80;;;4.03;;
46701;SDS011;33449;50.712;7.124;2023-02-26T03:24:26;13.70;;;4.05;;
46701;SDS011;33449;50.712;7.124;2023-02-26T03:26:59;13.10;;;3.47;;
46701;SDS011;33449;50.712;7.124;2023-02-26T03:40:09;12.48;;;3.40;;
46701;SDS011;33449;50.712;7.124;2023-02-26T03:42:43;10.52;;;4.93;;
46701;SDS011;33449;50.712;7.124;2023-02-26T03:45:13;11.07;;;3.92;;
46701;SDS011;33449;50.712;7.124;2023-02-26T03:47:42;11.88;;;4.25;;
46701;SDS011;33449;50.712;7.124;2023-02-26T03:53:05;8.85;;;3.85;;
46701;SDS011;33449;50.712;7.124;2023-02-26T03:55:54;9.70;;;3.63;;
46701;SDS011;33449;50.712;7.124;2023-02-26T03:58:23;14.35;;;4.47;;
46701;SDS011;33449;50.712;7.124;2023-02-26T04:00:52;14.23;;;3.83;;
46701;SDS011;33449;50.712;7.124;2023-02-26T04:03:25;7.13;;;3.53;;
46701;SDS011;33449;50.712;7.124;2023-02-26T04:05:53;5.53;;;2.40;;
46701;SDS011;33449;50.712;7.124;2023-02-26T04:13:28;11.75;;;4.18;;
46701;SDS011;33449;50.712;7.124;2023-02-26T04:15:55;13.93;;;4.03;;
46701;SDS011;33449;50.712;7.124;2023-02-26T04:18:23;8.80;;;3.67;;
46701;SDS011;33449;50.712;7.124;2023-02-26T04:20:50;10.52;;;3.83;;
46701;SDS011;33449;50.712;7.124;2023-02-26T04:25:52;7.10;;;3.35;;
46701;SDS011;33449;50.712;7.124;2023-02-26T04:28:19;7.47;;;3.45;;
46701;SDS011;33449;50.712;7.124;2023-02-26T04:30:46;6.10;;;3.30;;
46701;SDS011;33449;50.712;7.124;2023-02-26T04:33:14;11.48;;;3.03;;
46701;SDS011;33449;50.712;7.124;2023-02-26T04:35:41;8.23;;;3.60;;
46701;SDS011;33449;50.712;7.124;2023-02-26T04:40:51;10.50;;;3.90;;
46701;SDS011;33449;50.712;7.124;2023-02-26T04:43:18;7.07;;;3.45;;
46701;SDS011;33449;50.712;7.124;2023-02-26T04:45:45;10.13;;;3.97;;
46701;SDS011;33449;50.712;7.124;2023-02-26T04:48:13;6.65;;;4.15;;
46701;SDS011;33449;50.712;7.124;2023-02-26T04:50:40;16.33;;;4.15;;
46701;SDS011;33449;50.712;7.124;2023-02-26T04:55:50;8.65;;;3.45;;
46701;SDS011;33449;50.712;7.124;2023-02-26T04:58:17;8.70;;;3.58;;
46701;SDS011;33449;50.712;7.124;2023-02-26T05:00:48;16.42;;;5.03;;
46701;SDS011;33449;50.712;7.124;2023-02-26T05:03:16;8.55;;;4.25;;
46701;SDS011;33449;50.712;7.124;2023-02-26T05:05:43;12.57;;;3.42;;
46701;SDS011;33449;50.712;7.124;2023-02-26T05:11:04;6.15;;;3.03;;
46701;SDS011;33449;50.712;7.124;2023-02-26T05:13:53;11.25;;;3.70;;
46701;SDS011;33449;50.712;7.124;2023-02-26T05:16:20;6.18;;;3.70;;
46701;SDS011;33449;50.712;7.124;2023-02-26T05:18:47;5.38;;;3.30;;
46701;SDS011;33449;50.712;7.124;2023-02-26T05:21:14;7.75;;;3.55;;
46701;SDS011;33449;50.712;7.124;2023-02-26T05:23:42;9.02;;;4.10;;
46701;SDS011;33449;50.712;7.124;2023-02-26T05:28:39;9.35;;;2.78;;
46701;SDS011;33449;50.712;7.124;2023-02-26T05:31:11;10.05;;;3.42;;
46701;SDS011;33449;50.712;7.124;2023-02-26T05:33:38;5.93;;;3.08;;
46701;SDS011;33449;50.712;7.124;2023-02-26T05:36:06;6.75;;;3.13;;
46701;SDS011;33449;50.712;7.124;2023-02-26T05:38:33;7.57;;;3.38;;
46701;SDS011;33449;50.712;7.124;2023-02-26T05:43:33;17.08;;;3.58;;
46701;SDS011;33449;50.712;7.124;2023-02-26T05:46:01;8.38;;;3.33;;
46701;SDS011;33449;50.712;7.124;2023-02-26T05:48:30;10.32;;;3.47;;
46701;SDS011;33449;50.712;7.124;2023-02-26T05:50:57;7.15;;;2.88;;
46701;SDS011;33449;50.712;7.124;2023-02-26T05:53:27;5.72;;;2.75;;
46701;SDS011;33449;50.712;7.124;2023-02-26T05:58:53;7.10;;;3.45;;
46701;SDS011;33449;50.712;7.124;2023-02-26T06:01:29;6.97;;;2.95;;
46701;SDS011;33449;50.712;7.124;2023-02-26T06:03:56;9.68;;;3.13;;
46701;SDS011;33449;50.712;7.124;2023-02-26T06:06:23;6.05;;;2.70;;
46701;SDS011;33449;50.712;7.124;2023-02-26T06:08:52;5.35;;;3.10;;
46701;SDS011;33449;50.712;7.124;2023-02-26T06:11:19;9.63;;;3.70;;
46701;SDS011;33449;50.712;7.124;2023-02-26T06:13:48;9.27;;;2.70;;
46701;SDS011;33449;50.712;7.124;2023-02-26T06:16:36;5.90;;;2.60;;
46701;SDS011;33449;50.712;7.124;2023-02-26T06:19:03;7.85;;;3.22;;
46701;SDS011;33449;50.712;7.124;2023-02-26T06:21:31;9.77;;;3.17;;
46701;SDS011;33449;50.712;7.124;2023-02-26T06:23:58;5.65;;;2.55;;
46701;SDS011;33449;50.712;7.124;2023-02-26T06:26:25;12.88;;;3.22;;
46701;SDS011;33449;50.712;7.124;2023-02-26T06:31:28;7.75;;;2.97;;
46701;SDS011;33449;50.712;7.124;2023-02-26T06:33:55;8.32;;;3.33;;
46701;SDS011;33449;50.712;7.124;2023-02-26T06:36:22;4.65;;;2.55;;
46701;SDS011;33449;50.712;7.124;2023-02-26T06:38:50;4.63;;;2.40;;
46701;SDS011;33449;50.712;7.124;2023-02-26T06:41:17;7.97;;;2.63;;
46701;SDS011;33449;50.712;7.124;2023-02-26T06:43:44;6.03;;;2.40;;
46701;SDS011;33449;50.712;7.124;2023-02-26T06:46:11;5.80;;;2.40;;
46701;SDS011;33449;50.712;7.124;2023-02-26T06:48:38;8.20;;;2.67;;
46701;SDS011;33449;50.712;7.124;2023-02-26T06:51:05;7.43;;;3.40;;
46701;SDS011;33449;50.712;7.124;2023-02-26T06:53:32;6.93;;;3.28;;
46701;SDS011;33449;50.712;7.124;2023-02-26T06:55:59;9.95;;;2.92;;
46701;SDS011;33449;50.712;7.124;2023-02-26T06:58:26;7.72;;;2.30;;
46701;SDS011;33449;50.712;7.124;2023-02-26T07:00:53;13.73;;;3.13;;
46701;SDS011;33449;50.712;7.124;2023-02-26T07:03:21;8.80;;;3.10;;
46701;SDS011;33449;50.712;7.124;2023-02-26T07:05:48;5.25;;;2.75;;
46701;SDS011;33449;50.712;7.124;2023-02-26T07:08:15;6.75;;;3.88;;
46701;SDS011;33449;50.712;7.124;2023-02-26T07:10:42;6.85;;;3.70;;
46701;SDS011;33449;50.712;7.124;2023-02-26T07:13:12;10.25;;;3.00;;
46701;SDS011;33449;50.712;7.124;2023-02-26T07:15:39;10.27;;;3.10;;
46701;SDS011;33449;50.712;7.124;2023-02-26T07:18:06;7.32;;;3.00;;
46701;SDS011;33449;50.712;7.124;2023-02-26T07:20:34;9.63;;;3.40;;
46701;SDS011;33449;50.712;7.124;2023-02-26T07:23:01;6.03;;;2.85;;
46701;SDS011;33449;50.712;7.124;2023-02-26T07:25:28;5.85;;;2.58;;
46701;SDS011;33449;50.712;7.124;2023-02-26T07:28:07;13.25;;;3.85;;
46701;SDS011;33449;50.712;7.124;2023-02-26T07:30:34;8.55;;;3.10;;
46701;SDS011;33449;50.712;7.124;2023-02-26T07:33:01;6.55;;;3.03;;
46701;SDS011;33449;50.712;7.124;2023-02-26T07:35:28;5.90;;;3.22;;
46701;SDS011;33449;50.712;7.124;2023-02-26T07:37:55;10.40;;;3.33;;
46701;SDS011;33449;50.712;7.124;2023-02-26T07:40:22;10.77;;;3.22;;
46701;SDS011;33449;50.712;7.124;2023-02-26T07:42:49;9.27;;;5.43;;
46701;SDS011;33449;50.712;7.124;2023-02-26T07:45:16;8.25;;;3.60;;
46701;SDS011;33449;50.712;7.124;2023-02-26T07:47:48;13.02;;;3.28;;
46701;SDS011;33449;50.712;7.124;2023-02-26T07:50:16;10.75;;;4.65;;
46701;SDS011;33449;50.712;7.124;2023-02-26T07:55:15;7.38;;;3.72;;
46701;SDS011;33449;50.712;7.124;2023-02-26T07:57:45;10.02;;;3.85;;
46701;SDS011;33449;50.712;7.124;2023-02-26T08:00:16;8.13;;;3.70;;
46701;SDS011;33449;50.712;7.124;2023-02-26T08:03:04;7.20;;;3.63;;
46701;SDS011;33449;50.712;7.124;2023-02-26T08:05:32;8.80;;;3.70;;
46701;SDS011;33449;50.712;7.124;2023-02-26T08:08:00;9.60;;;3.97;;
46701;SDS011;33449;50.712;7.124;2023-02-26T08:13:01;12.57;;;5.25;;
46701;SDS011;33449;50.712;7.124;2023-02-26T08:15:29;9.23;;;4.10;;
46701;SDS011;33449;50.712;7.124;2023-02-26T08:17:56;7.80;;;4.05;;
46701;SDS011;33449;50.712;7.124;2023-02-26T08:20:23;13.15;;;4.45;;
46701;SDS011;33449;50.712;7.124;2023-02-26T08:22:50;11.57;;;4.22;;
46701;SDS011;33449;50.712;7.124;2023-02-26T08:25:17;6.85;;;3.90;;
46701;SDS011;33449;50.712;7.124;2023-02-26T08:28:04;8.38;;;3.80;;
46701;SDS011;33449;50.712;7.124;2023-02-26T08:30:31;7.43;;;3.60;;
46701;SDS011;33449;50.712;7.124;2023-02-26T08:32:58;8.68;;;3.75;;
46701;SDS011;33449;50.712;7.124;2023-02-26T08:35:26;6.47;;;3.72;;
46701;SDS011;33449;50.712;7.124;2023-02-26T08:37:53;6.55;;;3.45;;
46701;SDS011;33449;50.712;7.124;2023-02-26T08:42:59;7.55;;;3.60;;
46701;SDS011;33449;50.712;7.124;2023-02-26T08:45:26;9.40;;;4.00;;
46701;SDS011;33449;50.712;7.124;2023-02-26T08:47:53;7.80;;;3.45;;
46701;SDS011;33449;50.712;7.124;2023-02-26T08:50:23;6.35;;;4.22;;
46701;SDS011;33449;50.712;7.124;2023-02-26T08:52:50;7.10;;;3.80;;
46701;SDS011;33449;50.712;7.124;2023-02-26T08:57:52;6.10;;;3.20;;
46701;SDS011;33449;50.712;7.124;2023-02-26T09:00:19;8.25;;;5.00;;
46701;SDS011;33449;50.712;7.124;2023-02-26T09:03:03;9.85;;;3.25;;
46701;SDS011;33449;50.712;7.124;2023-02-26T09:05:30;5.95;;;3.78;;
46701;SDS011;33449;50.712;7.124;2023-02-26T09:07:58;9.75;;;4.00;;
46701;SDS011;33449;50.712;7.124;2023-02-26T09:10:25;5.85;;;3.25;;
46701;SDS011;33449;50.712;7.124;2023-02-26T09:12:52;8.82;;;4.15;;
46701;SDS011;33449;50.712;7.124;2023-02-26T09:15:19;8.70;;;3.08;;
46701;SDS011;33449;50.712;7.124;2023-02-26T09:17:46;6.43;;;3.20;;
46701;SDS011;33449;50.712;7.124;2023-02-26T09:20:13;9.20;;;3.08;;
46701;SDS011;33449;50.712;7.124;2023-02-26T09:22:40;7.97;;;3.60;;
46701;SDS011;33449;50.712;7.124;2023-02-26T09:25:10;6.70;;;3.45;;
46701;SDS011;33449;50.712;7.124;2023-02-26T09:27:47;6.00;;;2.90;;
46701;SDS011;33449;50.712;7.124;2023-02-26T09:30:14;6.63;;;3.30;;
46701;SDS011;33449;50.712;7.124;2023-02-26T09:32:41;7.60;;;2.95;;
46701;SDS011;33449;50.712;7.124;2023-02-26T09:35:08;7.22;;;3.42;;
46701;SDS011;33449;50.712;7.124;2023-02-26T09:37:36;3.40;;;2.30;;
46701;SDS011;33449;50.712;7.124;2023-02-26T09:40:05;3.05;;;2.05;;
46701;SDS011;33449;50.712;7.124;2023-02-26T09:42:43;5.88;;;2.70;;
46701;SDS011;33449;50.712;7.124;2023-02-26T09:45:30;5.25;;;2.45;;
46701;SDS011;33449;50.712;7.124;2023-02-26T09:47:58;4.68;;;2.40;;
46701;SDS011;33449;50.712;7.124;2023-02-26T09:55:40;4.95;;;2.30;;
46701;SDS011;33449;50.712;7.124;2023-02-26T10:00:52;7.22;;;2.90;;
46701;SDS011;33449;50.712;7.124;2023-02-26T10:03:50;4.93;;;1.85;;
46701;SDS011;33449;50.712;7.124;2023-02-26T10:06:55;7.93;;;2.47;;
46701;SDS011;33449;50.712;7.124;2023-02-26T10:12:20;4.72;;;2.17;;
46701;SDS011;33449;50.712;7.124;2023-02-26T10:23:02;4.30;;;1.70;;
46701;SDS011;33449;50.712;7.124;2023-02-26T10:25:32;2.97;;;1.58;;
46701;SDS011;33449;50.712;7.124;2023-02-26T10:30:42;2.88;;;1.48;;
46701;SDS011;33449;50.712;7.124;2023-02-26T10:33:18;3.63;;;2.35;;
46701;SDS011;33449;50.712;7.124;2023-02-26T10:35:51;4.18;;;1.55;;
46701;SDS011;33449;50.712;7.124;2023-02-26T10:38:21;3.60;;;1.67;;
46701;SDS011;33449;50.712;7.124;2023-02-26T10:40:59;3.63;;;1.40;;
46701;SDS011;33449;50.712;7.124;2023-02-26T10:54:33;1.48;;;0.90;;
46701;SDS011;33449;50.712;7.124;2023-02-26T10:57:01;8.05;;;1.35;;
46701;SDS011;33449;50.712;7.124;2023-02-26T10:59:30;2.20;;;1.02;;
46701;SDS011;33449;50.712;7.124;2023-02-26T11:01:57;2.20;;;1.10;;
46701;SDS011;33449;50.712;7.124;2023-02-26T11:04:25;2.80;;;1.05;;
46701;SDS011;33449;50.712;7.124;2023-02-26T11:09:37;3.03;;;1.25;;
46701;SDS011;33449;50.712;7.124;2023-02-26T11:17:57;2.67;;;0.87;;
46701;SDS011;33449;50.712;7.124;2023-02-26T11:20:36;3.38;;;1.30;;
46701;SDS011;33449;50.712;7.124;2023-02-26T11:23:05;1.98;;;0.77;;
46701;SDS011;33449;50.712;7.124;2023-02-26T11:25:33;1.85;;;0.80;;
46701;SDS011;33449;50.712;7.124;2023-02-26T11:28:06;3.33;;;1.20;;
46701;SDS011;33449;50.712;7.124;2023-02-26T11:30:37;1.27;;;0.63;;
46701;SDS011;33449;50.712;7.124;2023-02-26T11:33:06;2.78;;;1.40;;
46701;SDS011;33449;50.712;7.124;2023-02-26T11:35:39;3.38;;;0.90;;
46701;SDS011;33449;50.712;7.124;2023-02-26T11:38:07;3.78;;;1.13;;
46701;SDS011;33449;50.712;7.124;2023-02-26T11:40:42;3.95;;;1.20;;
46701;SDS011;33449;50.712;7.124;2023-02-26T11:43:14;3.88;;;1.63;;
46701;SDS011;33449;50.712;7.124;2023-02-26T11:48:18;3.25;;;1.38;;
46701;SDS011;33449;50.712;7.124;2023-02-26T11:50:48;4.03;;;0.93;;
46701;SDS011;33449;50.712;7.124;2023-02-26T11:53:23;1.83;;;1.08;;
46701;SDS011;33449;50.712;7.124;2023-02-26T11:55:51;5.43;;;0.80;;
46701;SDS011;33449;50.712;7.124;2023-02-26T11:58:22;3.53;;;1.15;;
46701;SDS011;33449;50.712;7.124;2023-02-26T12:00:53;1.95;;;0.88;;
46701;SDS011;33449;50.712;7.124;2023-02-26T12:03:26;3.70;;;1.02;;
46701;SDS011;33449;50.712;7.124;2023-02-26T12:05:57;4.40;;;1.50;;
46701;SDS011;33449;50.712;7.124;2023-02-26T12:08:30;2.05;;;0.80;;
46701;SDS011;33449;50.712;7.124;2023-02-26T12:11:14;1.85;;;0.90;;
46701;SDS011;33449;50.712;7.124;2023-02-26T12:19:12;2.80;;;1.05;;
46701;SDS011;33449;50.712;7.124;2023-02-26T12:22:07;3.85;;;1.45;;
46701;SDS011;33449;50.712;7.124;2023-02-26T12:24:53;3.70;;;0.80;;
46701;SDS011;33449;50.712;7.124;2023-02-26T12:37:30;2.30;;;0.95;;
46701;SDS011;33449;50.712;7.124;2023-02-26T12:45:03;1.85;;;1.00;;
46701;SDS011;33449;50.712;7.124;2023-02-26T12:53:14;3.72;;;0.98;;
46701;SDS011;33449;50.712;7.124;2023-02-26T12:58:26;2.88;;;1.10;;
46701;SDS011;33449;50.712;7.124;2023-02-26T13:01:12;2.50;;;1.00;;
46701;SDS011;33449;50.712;7.124;2023-02-26T13:09:03;1.17;;;0.90;;
46701;SDS011;33449;50.712;7.124;2023-02-26T13:16:46;2.63;;;0.90;;
46701;SDS011;33449;50.712;7.124;2023-02-26T13:19:35;3.70;;;0.95;;
46701;SDS011;33449;50.712;7.124;2023-02-26T13:22:12;1.60;;;0.90;;
46701;SDS011;33449;50.712;7.124;2023-02-26T13:24:43;3.22;;;0.80;;
46701;SDS011;33449;50.712;7.124;2023-02-26T13:27:09;6.75;;;1.27;;
46701;SDS011;33449;50.712;7.124;2023-02-26T13:30:05;3.30;;;1.02;;
46701;SDS011;33449;50.712;7.124;2023-02-26T13:32:50;7.63;;;1.60;;
46701;SDS011;33449;50.712;7.124;2023-02-26T13:37:47;1.35;;;1.00;;
46701;SDS011;33449;50.712;7.124;2023-02-26T13:47:57;3.30;;;0.90;;
46701;SDS011;33449;50.712;7.124;2023-02-26T13:55:44;5.78;;;1.02;;
46701;SDS011;33449;50.712;7.124;2023-02-26T14:00:45;4.47;;;0.95;;
46701;SDS011;33449;50.712;7.124;2023-02-26T14:08:19;1.27;;;0.70;;
46701;SDS011;33449;50.712;7.124;2023-02-26T14:10:57;2.67;;;1.65;;
46701;SDS011;33449;50.712;7.124;2023-02-26T14:13:38;4.65;;;1.13;;
46701;SDS011;33449;50.712;7.124;2023-02-26T14:16:10;4.65;;;0.77;;
46701;SDS011;33449;50.712;7.124;2023-02-26T14:23:48;2.55;;;1.08;;
46701;SDS011;33449;50.712;7.124;2023-02-26T14:26:16;4.40;;;1.88;;
46701;SDS011;33449;50.712;7.124;2023-02-26T14:28:53;2.35;;;1.00;;
46701;SDS011;33449;50.712;7.124;2023-02-26T14:31:21;2.17;;;0.70;;
46701;SDS011;33449;50.712;7.124;2023-02-26T14:36:28;3.70;;;0.60;;
46701;SDS011;33449;50.712;7.124;2023-02-26T14:41:43;2.67;;;0.80;;
46701;SDS011;33449;50.712;7.124;2023-02-26T14:44:17;4.90;;;0.93;;
46701;SDS011;33449;50.712;7.124;2023-02-26T14:46:46;2.05;;;1.73;;
46701;SDS011;33449;50.712;7.124;2023-02-26T14:49:16;2.20;;;0.70;;
46701;SDS011;33449;50.712;7.124;2023-02-26T14:51:51;4.43;;;1.47;;
46701;SDS011;33449;50.712;7.124;2023-02-26T14:54:27;9.27;;;1.92;;
46701;SDS011;33449;50.712;7.124;2023-02-26T15:15:42;4.30;;;1.00;;
46701;SDS011;33449;50.712;7.124;2023-02-26T15:23:38;3.80;;;1.05;;
46701;SDS011;33449;50.712;7.124;2023-02-26T15:26:07;1.73;;;0.70;;
46701;SDS011;33449;50.712;7.124;2023-02-26T15:28:37;1.20;;;0.80;;
46701;SDS011;33449;50.712;7.124;2023-02-26T15:31:06;4.70;;;1.02;;
46701;SDS011;33449;50.712;7.124;2023-02-26T15:33:39;2.38;;;0.73;;
46701;SDS011;33449;50.712;7.124;2023-02-26T15:36:08;2.80;;;0.95;;
46701;SDS011;33449;50.712;7.124;2023-02-26T15:38:39;2.88;;;1.02;;
46701;SDS011;33449;50.712;7.124;2023-02-26T15:41:06;0.80;;;0.50;;
46701;SDS011;33449;50.712;7.124;2023-02-26T15:43:34;1.70;;;0.75;;
46701;SDS011;33449;50.712;7.124;2023-02-26T15:46:01;2.25;;;1.02;;
46701;SDS011;33449;50.712;7.124;2023-02-26T15:48:35;2.78;;;0.80;;
46701;SDS011;33449;50.712;7.124;2023-02-26T15:51:08;2.83;;;1.07;;
46701;SDS011;33449;50.712;7.124;2023-02-26T15:53:37;1.15;;;0.68;;
46701;SDS011;33449;50.712;7.124;2023-02-26T15:56:28;2.70;;;1.20;;
46701;SDS011;33449;50.712;7.124;2023-02-26T16:01:42;2.20;;;0.98;;
46701;SDS011;33449;50.712;7.124;2023-02-26T16:04:14;1.70;;;0.90;;
46701;SDS011;33449;50.712;7.124;2023-02-26T16:06:45;2.92;;;0.93;;
46701;SDS011;33449;50.712;7.124;2023-02-26T16:09:17;1.30;;;0.95;;
46701;SDS011;33449;50.712;7.124;2023-02-26T16:11:45;2.67;;;0.93;;
46701;SDS011;33449;50.712;7.124;2023-02-26T16:14:34;4.60;;;0.73;;
46701;SDS011;33449;50.712;7.124;2023-02-26T16:17:07;2.35;;;0.80;;
46701;SDS011;33449;50.712;7.124;2023-02-26T16:19:40;3.30;;;1.27;;
46701;SDS011;33449;50.712;7.124;2023-02-26T16:22:42;3.53;;;1.35;;
46701;SDS011;33449;50.712;7.124;2023-02-26T16:25:04;6.38;;;1.30;;
46701;SDS011;33449;50.712;7.124;2023-02-26T16:29:59;3.88;;;1.02;;
46701;SDS011;33449;50.712;7.124;2023-02-26T16:32:28;5.63;;;1.00;;
46701;SDS011;33449;50.712;7.124;2023-02-26T16:37:44;2.70;;;1.20;;
46701;SDS011;33449;50.712;7.124;2023-02-26T16:40:25;2.75;;;1.20;;
46701;SDS011;33449;50.712;7.124;2023-02-26T16:42:54;2.38;;;0.80;;
46701;SDS011;33449;50.712;7.124;2023-02-26T16:47:55;2.72;;;1.25;;
46701;SDS011;33449;50.712;7.124;2023-02-26T16:53:18;3.95;;;1.00;;
46701;SDS011;33449;50.712;7.124;2023-02-26T16:55:50;4.30;;;1.13;;
46701;SDS011;33449;50.712;7.124;2023-02-26T16:58:18;3.58;;;1.42;;
46701;SDS011;33449;50.712;7.124;2023-02-26T17:00:49;2.78;;;1.10;;
46701;SDS011;33449;50.712;7.124;2023-02-26T17:03:18;1.92;;;1.15;;
46701;SDS011;33449;50.712;7.124;2023-02-26T17:05:49;1.90;;;1.25;;
46701;SDS011;33449;50.712;7.124;2023-02-26T17:08:19;3.05;;;0.85;;
46701;SDS011;33449;50.712;7.124;2023-02-26T17:11:17;2.50;;;1.00;;
46701;SDS011;33449;50.712;7.124;2023-02-26T17:13:46;3.53;;;1.30;;
46701;SDS011;33449;50.712;7.124;2023-02-26T17:16:22;2.72;;;1.30;;
46701;SDS011;33449;50.712;7.124;2023-02-26T17:18:50;2.97;;;1.30;;
46701;SDS011;33449;50.712;7.124;2023-02-26T17:21:18;1.92;;;1.05;;
46701;SDS011;33449;50.712;7.124;2023-02-26T17:23:45;2.65;;;1.30;;
46701;SDS011;33449;50.712;7.124;2023-02-26T17:26:15;5.93;;;1.42;;
46701;SDS011;33449;50.712;7.124;2023-02-26T17:28:42;3.60;;;1.63;;
46701;SDS011;33449;50.712;7.124;2023-02-26T17:31:10;2.45;;;1.38;;
46701;SDS011;33449;50.712;7.124;2023-02-26T17:33:41;1.88;;;1.35;;
46701;SDS011;33449;50.712;7.124;2023-02-26T17:36:12;2.83;;;1.35;;
46701;SDS011;33449;50.712;7.124;2023-02-26T17:38:39;2.03;;;1.10;;
46701;SDS011;33449;50.712;7.124;2023-02-26T17:41:13;6.03;;;1.52;;
46701;SDS011;33449;50.712;7.124;2023-02-26T17:49:27;5.00;;;1.77;;
46701;SDS011;33449;50.712;7.124;2023-02-26T17:51:54;6.13;;;1.80;;
46701;SDS011;33449;50.712;7.124;2023-02-26T17:54:22;2.92;;;1.25;;
46701;SDS011;33449;50.712;7.124;2023-02-26T18:01:55;4.25;;;1.63;;
46701;SDS011;33449;50.712;7.124;2023-02-26T18:04:22;4.20;;;1.13;;
46701;SDS011;33449;50.712;7.124;2023-02-26T18:06:49;5.32;;;1.75;;
46701;SDS011;33449;50.712;7.124;2023-02-26T18:09:16;4.75;;;1.65;;
46701;SDS011;33449;50.712;7.124;2023-02-26T18:11:43;6.60;;;1.98;;
46701;SDS011;33449;50.712;7.124;2023-02-26T18:17:00;4.57;;;1.90;;
46701;SDS011;33449;50.712;7.124;2023-02-26T18:19:27;4.47;;;2.13;;
46701;SDS011;33449;50.712;7.124;2023-02-26T18:21:54;5.25;;;2.03;;
46701;SDS011;33449;50.712;7.124;2023-02-26T18:24:21;6.22;;;2.00;;
46701;SDS011;33449;50.712;7.124;2023-02-26T18:26:49;5.20;;;2.20;;
46701;SDS011;33449;50.712;7.124;2023-02-26T18:31:49;5.90;;;1.95;;
46701;SDS011;33449;50.712;7.124;2023-02-26T18:34:16;4.63;;;2.17;;
46701;SDS011;33449;50.712;7.124;2023-02-26T18:36:43;4.70;;;1.83;;
46701;SDS011;33449;50.712;7.124;2023-02-26T18:39:11;7.28;;;2.88;;
46701;SDS011;33449;50.712;7.124;2023-02-26T18:41:40;7.85;;;2.17;;
46701;SDS011;33449;50.712;7.124;2023-02-26T18:46:51;4.30;;;1.83;;
46701;SDS011;33449;50.712;7.124;2023-02-26T18:49:18;6.68;;;2.15;;
46701;SDS011;33449;50.712;7.124;2023-02-26T18:51:46;6.75;;;2.08;;
46701;SDS011;33449;50.712;7.124;2023-02-26T18:54:13;4.90;;;2.33;;
46701;SDS011;33449;50.712;7.124;2023-02-26T18:56:40;4.43;;;2.00;;
46701;SDS011;33449;50.712;7.124;2023-02-26T19:01:43;3.22;;;1.77;;
46701;SDS011;33449;50.712;7.124;2023-02-26T19:04:10;5.15;;;2.50;;
46701;SDS011;33449;50.712;7.124;2023-02-26T19:06:37;3.40;;;1.70;;
46701;SDS011;33449;50.712;7.124;2023-02-26T19:09:04;6.15;;;2.00;;
46701;SDS011;33449;50.712;7.124;2023-02-26T19:11:31;5.15;;;1.98;;
46701;SDS011;33449;50.712;7.124;2023-02-26T19:16:40;5.50;;;2.97;;
46701;SDS011;33449;50.712;7.124;2023-02-26T19:19:09;8.55;;;3.25;;
46701;SDS011;33449;50.712;7.124;2023-02-26T19:21:38;3.95;;;2.33;;
46701;SDS011;33449;50.712;7.124;2023-02-26T19:24:09;5.35;;;3.45;;
46701;SDS011;33449;50.712;7.124;2023-02-26T19:26:36;3.72;;;2.00;;
46701;SDS011;33449;50.712;7.124;2023-02-26T19:31:37;7.55;;;3.28;;
46701;SDS011;33449;50.712;7.124;2023-02-26T19:34:04;11.27;;;4.78;;
46701;SDS011;33449;50.712;7.124;2023-02-26T19:36:31;7.50;;;2.78;;
46701;SDS011;33449;50.712;7.124;2023-02-26T19:39:03;6.25;;;2.80;;
46701;SDS011;33449;50.712;7.124;2023-02-26T19:41:31;8.05;;;3.08;;
46701;SDS011;33449;50.712;7.124;2023-02-26T19:57:26;11.52;;;3.40;;
46701;SDS011;33449;50.712;7.124;2023-02-26T19:59:53;8.43;;;2.80;;
46701;SDS011;33449;50.712;7.124;2023-02-26T20:02:20;8.25;;;3.22;;
46701;SDS011;33449;50.712;7.124;2023-02-26T20:07:40;7.53;;;2.47;;
46701;SDS011;33449;50.712;7.124;2023-02-26T20:10:07;7.18;;;3.38;;
46701;SDS011;33449;50.712;7.124;2023-02-26T20:12:35;6.95;;;3.42;;
46701;SDS011;33449;50.712;7.124;2023-02-26T20:15:02;7.72;;;3.42;;
46701;SDS011;33449;50.712;7.124;2023-02-26T20:17:29;5.97;;;2.67;;
46701;SDS011;33449;50.712;7.124;2023-02-26T20:24:56;5.65;;;2.95;;
46701;SDS011;33449;50.712;7.124;2023-02-26T20:27:23;8.50;;;3.17;;
46701;SDS011;33449;50.712;7.124;2023-02-26T20:29:50;7.20;;;3.33;;
46701;SDS011;33449;50.712;7.124;2023-02-26T20:32:17;10.13;;;3.30;;
46701;SDS011;33449;50.712;7.124;2023-02-26T20:34:44;7.88;;;3.22;;
46701;SDS011;33449;50.712;7.124;2023-02-26T20:37:11;11.45;;;3.90;;